Time;durP1;ratioP1;P1;durP2;ratioP2;P2;SDS_P1;SDS_P2;PMS_P1;PMS_P2;Temp;Humidity;BMP_temperature;BMP_pressure;BME280_temperature;BME280_humidity;BME280_pressure;Samples;Min_cycle;Max_cycle;Signal;HPM_P1;HPM_P2
2023/04/05 00:00:42;;;;;;;8.82;6.28;;;6.10;95.50;;;;;;4774552;30;20435;-95
2023/04/05 00:03:08;;;;;;;6.65;5.60;;;6.10;95.50;;;;;;4785123;30;20233;-96
2023/04/05 00:05:35;;;;;;;10.55;7.00;;;6.10;95.50;;;;;;4790199;30;20200;-94
2023/04/05 00:08:02;;;;;;;7.80;6.68;;;6.10;95.60;;;;;;4782962;30;20253;-95
2023/04/05 00:10:29;;;;;;;7.80;6.35;;;6.10;95.50;;;;;;4774598;30;20199;-96
2023/04/05 00:12:55;;;;;;;9.20;6.45;;;6.00;95.50;;;;;;4773896;30;20573;-95
2023/04/05 00:15:21;;;;;;;7.25;6.35;;;6.00;95.40;;;;;;4774127;30;20197;-96
2023/04/05 00:17:47;;;;;;;7.25;6.55;;;5.90;95.50;;;;;;4773972;30;20199;-96
2023/04/05 00:20:13;;;;;;;9.37;7.33;;;5.90;95.70;;;;;;4774260;30;20195;-95
2023/04/05 00:22:42;;;;;;;9.07;6.60;;;5.90;95.50;;;;;;4774078;30;20618;-95
2023/04/05 00:25:08;;;;;;;7.78;6.70;;;5.90;95.70;;;;;;4774032;30;20442;-96
2023/04/05 00:27:33;;;;;;;8.77;6.47;;;5.90;95.70;;;;;;4774128;30;20693;-95
2023/04/05 00:30:00;;;;;;;10.10;6.27;;;5.80;95.50;;;;;;4774511;30;20197;-96
2023/04/05 00:32:26;;;;;;;7.63;6.03;;;5.80;95.60;;;;;;4782817;30;20211;-96
2023/04/05 00:34:52;;;;;;;8.75;6.47;;;5.70;95.60;;;;;;4774803;30;20634;-96
2023/04/05 00:37:17;;;;;;;11.30;7.00;;;5.70;95.70;;;;;;4774095;30;20293;-96
2023/04/05 00:39:44;;;;;;;7.80;6.40;;;5.70;95.60;;;;;;4773640;30;20187;-95
2023/04/05 00:42:13;;;;;;;9.00;6.40;;;5.70;95.50;;;;;;4774109;30;20241;-96
2023/04/05 00:44:38;;;;;;;7.60;6.47;;;5.70;95.40;;;;;;4773683;30;20198;-96
2023/04/05 00:47:06;;;;;;;10.73;5.87;;;5.70;95.40;;;;;;4774035;30;20227;-94
2023/04/05 00:49:33;;;;;;;9.77;6.90;;;5.60;95.50;;;;;;4773782;30;20202;-96
2023/04/05 00:52:00;;;;;;;9.10;6.97;;;5.60;95.50;;;;;;4773398;30;20242;-96
2023/04/05 00:54:29;;;;;;;8.27;6.60;;;5.60;95.70;;;;;;4773784;30;20200;-95
2023/04/05 00:56:58;;;;;;;9.05;6.57;;;5.60;95.50;;;;;;4793492;30;20595;-96
2023/04/05 00:59:30;;;;;;;8.43;6.00;;;5.50;96.00;;;;;;4780773;30;20199;-95
2023/04/05 01:02:05;;;;;;;7.93;6.22;;;5.50;95.50;;;;;;4773982;30;20298;-95
2023/04/05 01:04:35;;;;;;;7.28;6.00;;;5.50;95.50;;;;;;4773869;30;20190;-96
2023/04/05 01:07:07;;;;;;;7.93;6.75;;;5.50;95.60;;;;;;4770202;30;20247;-96
2023/04/05 01:09:54;;;;;;;8.95;6.93;;;5.50;95.50;;;;;;4770591;30;20699;-94
2023/04/05 01:12:23;;;;;;;9.23;6.28;;;5.40;95.80;;;;;;4770955;30;20208;-95
2023/04/05 01:14:51;;;;;;;6.25;5.45;;;5.30;95.50;;;;;;4770717;30;20222;-94
2023/04/05 01:17:26;;;;;;;7.32;5.93;;;5.30;95.40;;;;;;4770470;30;20209;-96
2023/04/05 01:20:02;;;;;;;7.60;6.50;;;5.20;95.30;;;;;;4770541;30;20220;-95
2023/04/05 01:22:31;;;;;;;9.00;7.32;;;5.20;95.40;;;;;;4770599;30;20569;-95
2023/04/05 01:25:11;;;;;;;8.43;6.30;;;5.10;95.50;;;;;;4770550;30;20662;-96
2023/04/05 01:27:57;;;;;;;6.28;5.68;;;5.10;95.30;;;;;;4770618;30;20778;-95
2023/04/05 01:30:34;;;;;;;9.98;7.43;;;5.10;95.40;;;;;;4743192;30;20196;-95
2023/04/05 01:33:22;;;;;;;8.88;6.05;;;5.00;95.30;;;;;;4770766;30;20208;-96
2023/04/05 01:35:55;;;;;;;10.88;7.07;;;5.00;95.30;;;;;;4770915;30;20272;-96
2023/04/05 01:38:25;;;;;;;9.27;6.65;;;4.90;95.20;;;;;;4781872;30;20199;-96
2023/04/05 01:40:52;;;;;;;10.48;6.35;;;4.90;95.40;;;;;;4770402;30;20188;-95
2023/04/05 01:43:18;;;;;;;9.73;7.32;;;4.80;95.50;;;;;;4770214;30;20189;-96
2023/04/05 01:45:45;;;;;;;8.00;6.30;;;4.90;95.30;;;;;;4770313;30;20675;-94
2023/04/05 01:48:12;;;;;;;12.68;6.35;;;4.80;95.30;;;;;;4770457;30;20188;-96
2023/04/05 01:50:38;;;;;;;7.75;7.00;;;4.90;95.30;;;;;;4770507;30;20192;-96
2023/04/05 01:53:06;;;;;;;9.20;6.20;;;4.80;95.30;;;;;;4770426;30;20294;-96
2023/04/05 01:55:31;;;;;;;9.85;7.32;;;4.80;95.30;;;;;;4772630;30;20225;-96
2023/04/05 01:57:57;;;;;;;9.33;5.77;;;4.80;95.30;;;;;;4773418;30;20208;-95
2023/04/05 02:00:23;;;;;;;8.83;6.10;;;4.80;95.40;;;;;;4773350;30;20188;-96
2023/04/05 02:02:49;;;;;;;6.53;5.90;;;4.80;95.40;;;;;;4774526;30;20431;-96
2023/04/05 02:05:15;;;;;;;9.87;6.97;;;4.70;95.40;;;;;;4773154;30;20452;-96
2023/04/05 02:07:40;;;;;;;8.80;6.60;;;4.70;95.50;;;;;;4772676;30;20247;-96
2023/04/05 02:10:07;;;;;;;8.40;5.93;;;4.70;95.60;;;;;;4773184;30;20531;-96
2023/04/05 02:12:33;;;;;;;9.63;6.22;;;4.70;95.50;;;;;;4773552;30;20208;-95
2023/04/05 02:14:59;;;;;;;7.20;6.20;;;4.70;95.30;;;;;;4773260;30;20564;-96
2023/04/05 02:17:25;;;;;;;7.53;6.82;;;4.70;95.60;;;;;;4773763;30;20543;-96
2023/04/05 02:19:51;;;;;;;9.00;7.40;;;4.70;95.60;;;;;;4774384;30;20269;-96
2023/04/05 02:22:18;;;;;;;14.82;5.97;;;4.60;95.70;;;;;;4780062;30;20242;-95
2023/04/05 02:24:44;;;;;;;8.50;6.88;;;4.60;95.60;;;;;;4773282;30;20288;-96
2023/04/05 02:27:10;;;;;;;12.07;6.87;;;4.60;95.60;;;;;;4773057;30;20725;-96
2023/04/05 02:29:35;;;;;;;6.90;5.63;;;4.60;95.70;;;;;;4773533;30;20278;-96
2023/04/05 02:32:01;;;;;;;8.63;7.07;;;4.60;95.60;;;;;;4773158;30;20210;-95
2023/04/05 02:34:27;;;;;;;10.20;7.00;;;4.60;95.70;;;;;;4780013;30;20228;-96
2023/04/05 02:36:53;;;;;;;8.33;6.50;;;4.70;95.60;;;;;;4773093;30;20220;-96
2023/04/05 02:39:19;;;;;;;8.13;6.23;;;4.60;95.90;;;;;;4774479;30;20202;-96
2023/04/05 02:41:45;;;;;;;9.07;7.03;;;4.70;95.60;;;;;;4777705;30;20486;-94
2023/04/05 02:44:12;;;;;;;10.37;6.83;;;4.60;95.70;;;;;;4782373;30;20200;-96
2023/04/05 02:46:38;;;;;;;7.68;5.97;;;4.50;95.70;;;;;;4786947;30;20474;-96
2023/04/05 02:49:04;;;;;;;9.87;6.90;;;4.60;95.80;;;;;;4787770;30;20272;-96
2023/04/05 02:51:29;;;;;;;7.90;6.30;;;4.60;95.60;;;;;;4774318;30;20215;-96
2023/04/05 02:53:55;;;;;;;9.30;6.33;;;4.50;96.00;;;;;;4772673;30;20184;-94
2023/04/05 02:56:21;;;;;;;9.63;7.03;;;4.50;95.90;;;;;;4772464;30;20204;-94
2023/04/05 02:58:50;;;;;;;9.20;6.90;;;4.50;95.80;;;;;;4772553;30;20223;-94
2023/04/05 03:01:16;;;;;;;8.80;6.53;;;4.40;95.90;;;;;;4772622;30;20540;-95
2023/04/05 03:03:42;;;;;;;7.70;6.50;;;4.40;95.80;;;;;;4772394;30;20184;-95
2023/04/05 03:06:08;;;;;;;7.53;6.75;;;4.40;96.00;;;;;;4773644;30;20632;-96
2023/04/05 03:08:37;;;;;;;8.60;6.32;;;4.30;96.00;;;;;;4775644;30;20215;-96
2023/04/05 03:11:05;;;;;;;8.48;6.75;;;4.40;96.20;;;;;;4775438;29;20191;-96
2023/04/05 03:13:31;;;;;;;9.32;6.60;;;4.30;95.90;;;;;;4775390;30;20602;-94
2023/04/05 03:15:56;;;;;;;9.60;5.93;;;4.30;95.80;;;;;;4775086;29;20191;-96
2023/04/05 03:18:25;;;;;;;8.60;6.90;;;4.20;95.90;;;;;;4775103;30;20240;-96
2023/04/05 03:20:56;;;;;;;9.52;6.82;;;4.20;96.00;;;;;;4774846;29;20191;-96
2023/04/05 03:23:28;;;;;;;6.30;5.35;;;4.20;96.50;;;;;;4775190;30;20592;-96
2023/04/05 03:26:04;;;;;;;8.07;6.40;;;4.60;97.80;;;;;;4775107;29;20207;-95
2023/04/05 03:28:33;;;;;;;8.75;6.70;;;4.90;98.20;;;;;;4774781;30;20676;-96
2023/04/05 03:30:59;;;;;;;7.35;6.32;;;5.20;99.80;;;;;;4774834;29;20187;-96
2023/04/05 03:33:25;;;;;;;7.00;5.60;;;5.60;99.90;;;;;;4774669;30;20217;-95
2023/04/05 03:35:51;;;;;;;7.57;6.07;;;5.80;99.50;;;;;;4774810;29;20466;-95
2023/04/05 03:38:16;;;;;;;7.83;6.47;;;6.00;99.90;;;;;;4779093;30;20195;-94
2023/04/05 03:40:42;;;;;;;7.73;5.93;;;6.10;99.90;;;;;;4775030;30;20668;-95
2023/04/05 03:43:08;;;;;;;9.30;6.13;;;6.10;98.90;;;;;;4774664;30;20211;-94
2023/04/05 03:45:34;;;;;;;11.70;8.00;;;6.30;99.90;;;;;;4777665;30;20537;-95
2023/04/05 03:48:00;;;;;;;41.08;21.42;;;6.30;99.90;;;;;;4782136;30;20245;-95
2023/04/05 03:50:26;;;;;;;12.13;6.63;;;6.40;99.90;;;;;;4774745;30;20645;-96
2023/04/05 03:52:52;;;;;;;10.93;6.70;;;6.60;99.90;;;;;;4773831;30;20247;-96
2023/04/05 03:55:18;;;;;;;7.50;6.57;;;7.00;99.90;;;;;;4778784;30;20444;-96
2023/04/05 03:57:44;;;;;;;8.67;6.80;;;7.00;99.90;;;;;;4787061;29;20242;-94
2023/04/05 04:00:13;;;;;;;11.05;7.10;;;7.10;99.90;;;;;;4774188;30;20188;-95
2023/04/05 04:02:43;;;;;;;11.32;7.43;;;7.20;99.90;;;;;;4777251;30;20299;-96
2023/04/05 04:05:10;;;;;;;9.20;6.75;;;7.40;99.90;;;;;;4779942;30;20546;-96
2023/04/05 04:07:36;;;;;;;7.40;6.13;;;7.40;99.90;;;;;;4780645;30;20341;-94
2023/04/05 04:10:04;;;;;;;8.93;6.65;;;7.60;99.90;;;;;;4780419;30;20210;-96
2023/04/05 04:12:30;;;;;;;9.30;7.15;;;7.90;99.90;;;;;;4785516;29;20235;-96
2023/04/05 04:14:56;;;;;;;11.13;6.70;;;8.40;99.90;;;;;;4784705;30;20649;-96
2023/04/05 04:17:30;;;;;;;10.63;6.68;;;8.70;99.90;;;;;;4782675;30;20203;-96
2023/04/05 04:19:56;;;;;;;9.90;7.00;;;8.70;99.90;;;;;;4775879;30;20203;-96
2023/04/05 04:22:25;;;;;;;7.82;6.13;;;8.70;99.90;;;;;;4770689;30;20215;-95
2023/04/05 04:24:52;;;;;;;8.13;6.60;;;8.70;99.90;;;;;;4771042;30;20789;-94
2023/04/05 04:27:19;;;;;;;8.93;6.65;;;8.70;99.90;;;;;;4777832;30;20313;-96
2023/04/05 04:29:48;;;;;;;9.60;7.15;;;8.60;99.90;;;;;;4771542;30;20211;-96
2023/04/05 04:32:15;;;;;;;6.63;5.90;;;8.60;99.90;;;;;;4773321;30;20634;-96
2023/04/05 04:34:44;;;;;;;8.57;6.32;;;8.70;99.90;;;;;;4773762;30;20254;-95
2023/04/05 04:37:17;;;;;;;9.15;6.82;;;8.70;99.90;;;;;;4772673;30;20331;-96
2023/04/05 04:39:47;;;;;;;6.47;5.85;;;8.70;99.90;;;;;;4765667;30;20195;-94
2023/04/05 04:42:18;;;;;;;8.25;6.90;;;8.60;99.90;;;;;;4773501;30;20207;-94
2023/04/05 04:44:48;;;;;;;7.60;6.10;;;8.50;99.90;;;;;;4768088;30;20236;-94
2023/04/05 04:47:16;;;;;;;10.38;6.80;;;8.40;99.90;;;;;;4755505;30;20227;-96
2023/04/05 04:49:42;;;;;;;10.07;6.72;;;8.00;96.10;;;;;;4755741;30;20188;-95
2023/04/05 04:52:08;;;;;;;8.88;6.75;;;7.10;95.30;;;;;;4773357;30;20253;-96
2023/04/05 04:54:35;;;;;;;8.87;6.70;;;6.40;95.30;;;;;;4772268;30;20203;-96
2023/04/05 04:57:01;;;;;;;10.73;7.65;;;6.10;95.70;;;;;;4770472;30;20475;-94
2023/04/05 04:59:28;;;;;;;8.65;6.20;;;5.70;95.80;;;;;;4770134;30;20195;-94
2023/04/05 05:01:54;;;;;;;7.75;6.95;;;5.50;96.30;;;;;;4766959;30;20311;-94
2023/04/05 05:04:20;;;;;;;10.87;7.70;;;5.40;96.50;;;;;;4765519;30;20203;-96
2023/04/05 05:06:49;;;;;;;11.75;8.35;;;5.30;96.40;;;;;;4761933;30;21014;-94
2023/04/05 05:09:14;;;;;;;10.55;7.85;;;5.20;96.70;;;;;;4772937;30;20226;-96
2023/04/05 05:11:40;;;;;;;8.40;7.50;;;5.20;96.40;;;;;;4771675;30;20279;-95
2023/04/05 05:14:06;;;;;;;9.53;7.77;;;5.10;96.90;;;;;;4770632;30;20248;-96
2023/04/05 05:16:32;;;;;;;8.50;7.57;;;5.00;97.00;;;;;;4771344;30;20215;-96
2023/04/05 05:18:58;;;;;;;10.82;7.63;;;4.90;97.10;;;;;;4776522;30;20198;-93
2023/04/05 05:21:23;;;;;;;9.47;7.77;;;4.90;97.40;;;;;;4786196;30;20345;-96
2023/04/05 05:23:50;;;;;;;9.40;8.13;;;4.90;97.50;;;;;;4778646;30;20523;-94
2023/04/05 05:26:16;;;;;;;14.00;7.95;;;4.90;97.50;;;;;;4779387;30;20230;-95
2023/04/05 05:28:42;;;;;;;11.40;7.77;;;4.90;97.60;;;;;;4772596;30;20210;-96
2023/04/05 05:31:08;;;;;;;11.73;8.25;;;4.90;97.50;;;;;;4776930;30;20528;-96
2023/04/05 05:33:33;;;;;;;12.80;8.87;;;4.80;97.30;;;;;;4778136;30;20537;-96
2023/04/05 05:35:59;;;;;;;14.40;8.87;;;4.70;97.60;;;;;;4773985;30;20961;-94
2023/04/05 05:38:25;;;;;;;9.67;8.07;;;4.70;97.40;;;;;;4783176;30;20605;-95
2023/04/05 05:40:56;;;;;;;9.47;7.30;;;4.70;97.40;;;;;;4774414;30;20443;-95
2023/04/05 05:43:21;;;;;;;10.40;8.35;;;4.70;97.50;;;;;;4789137;30;20442;-94
2023/04/05 05:45:47;;;;;;;10.23;8.70;;;4.70;97.80;;;;;;4781631;29;20285;-96
2023/04/05 05:48:13;;;;;;;11.50;8.23;;;4.70;97.70;;;;;;4776661;30;20183;-96
2023/04/05 05:50:39;;;;;;;13.93;8.63;;;4.70;97.70;;;;;;4776268;30;20269;-96
2023/04/05 05:53:05;;;;;;;16.10;8.60;;;4.70;98.00;;;;;;4770358;30;20579;-95
2023/04/05 05:55:31;;;;;;;10.98;7.70;;;4.70;97.50;;;;;;4764495;30;20202;-95
2023/04/05 05:57:57;;;;;;;11.30;7.57;;;4.80;97.30;;;;;;4771496;30;20677;-96
2023/04/05 06:00:23;;;;;;;9.18;8.20;;;4.70;97.30;;;;;;4775620;30;20207;-94
2023/04/05 06:02:49;;;;;;;11.13;7.87;;;4.70;97.40;;;;;;4775630;30;20211;-95
2023/04/05 06:05:15;;;;;;;11.70;9.67;;;4.80;97.20;;;;;;4774172;30;20318;-95
2023/04/05 06:07:41;;;;;;;14.40;9.13;;;4.80;97.10;;;;;;4774174;30;20908;-96
2023/04/05 06:10:07;;;;;;;12.87;8.03;;;4.80;97.30;;;;;;4773371;30;20200;-96
2023/04/05 06:12:33;;;;;;;11.90;8.23;;;4.90;97.10;;;;;;4773049;30;20599;-96
2023/04/05 06:15:00;;;;;;;9.23;7.70;;;5.00;97.20;;;;;;4772644;30;20657;-94
2023/04/05 06:17:27;;;;;;;14.88;7.78;;;5.00;97.00;;;;;;4778041;30;20203;-96
2023/04/05 06:19:52;;;;;;;13.60;8.93;;;5.10;96.70;;;;;;4783050;30;20195;-96
2023/04/05 06:22:18;;;;;;;16.80;10.60;;;5.30;97.20;;;;;;4785504;30;20238;-94
2023/04/05 06:24:44;;;;;;;11.40;7.17;;;5.40;96.90;;;;;;4784975;30;20203;-96
2023/04/05 06:27:10;;;;;;;12.37;8.50;;;5.50;96.40;;;;;;4771326;30;20499;-96
2023/04/05 06:29:36;;;;;;;10.70;8.17;;;5.40;96.20;;;;;;4778103;30;21126;-96
2023/04/05 06:32:01;;;;;;;12.83;8.50;;;5.50;97.10;;;;;;4779558;29;20422;-94
2023/04/05 06:34:27;;;;;;;9.90;8.27;;;5.60;96.50;;;;;;4769661;30;20416;-96
2023/04/05 06:36:54;;;;;;;7.40;6.27;;;5.60;96.40;;;;;;4769338;30;20215;-95
2023/04/05 06:39:20;;;;;;;13.75;8.45;;;5.70;96.10;;;;;;4767489;29;20198;-96
2023/04/05 06:41:46;;;;;;;9.97;6.73;;;5.70;96.20;;;;;;4768063;30;20211;-95
2023/04/05 06:44:11;;;;;;;9.43;8.00;;;5.70;96.20;;;;;;4764415;30;20219;-96
2023/04/05 06:46:37;;;;;;;9.20;8.30;;;5.80;95.90;;;;;;4771923;30;20230;-94
2023/04/05 06:49:03;;;;;;;13.90;8.70;;;5.80;95.80;;;;;;4771599;30;20206;-95
2023/04/05 06:51:30;;;;;;;16.25;8.93;;;5.80;95.70;;;;;;4777517;30;20261;-96
2023/04/05 06:53:56;;;;;;;9.07;6.22;;;5.90;96.30;;;;;;4770445;30;20176;-96
2023/04/05 06:56:22;;;;;;;10.83;7.47;;;5.90;95.80;;;;;;4755175;30;20214;-96
2023/04/05 06:58:49;;;;;;;11.10;7.28;;;6.00;95.80;;;;;;4771235;30;20195;-96
2023/04/05 07:01:16;;;;;;;11.20;7.43;;;6.00;95.60;;;;;;4769004;30;20218;-96
2023/04/05 07:03:42;;;;;;;10.80;8.38;;;6.10;97.00;;;;;;4770070;30;20183;-96
2023/04/05 07:06:08;;;;;;;10.77;8.83;;;6.20;95.70;;;;;;4769025;30;20227;-95
2023/04/05 07:08:34;;;;;;;14.40;9.63;;;6.30;96.30;;;;;;4770353;30;20179;-96
2023/04/05 07:11:00;;;;;;;10.53;8.00;;;6.40;95.50;;;;;;4770546;30;20207;-96
2023/04/05 07:13:26;;;;;;;9.30;7.97;;;6.30;95.00;;;;;;4761814;30;20286;-95
2023/04/05 07:15:58;;;;;;;9.33;6.50;;;6.40;95.80;;;;;;4768740;30;20191;-95
2023/04/05 07:18:23;;;;;;;14.43;7.32;;;6.50;95.50;;;;;;4767895;30;20272;-96
2023/04/05 07:20:49;;;;;;;7.40;5.07;;;6.60;94.90;;;;;;4769067;30;20226;-95
2023/04/05 07:23:16;;;;;;;12.73;8.23;;;6.70;96.40;;;;;;4770010;30;20611;-95
2023/04/05 07:25:42;;;;;;;8.77;6.75;;;6.80;95.10;;;;;;4769805;30;21032;-96
2023/04/05 07:28:08;;;;;;;10.48;5.25;;;6.80;95.10;;;;;;4766760;30;20564;-96
2023/04/05 07:30:35;;;;;;;10.27;7.20;;;6.90;94.80;;;;;;4766638;30;20199;-95
2023/04/05 07:33:01;;;;;;;17.30;8.20;;;6.90;94.80;;;;;;4763314;30;20459;-96
2023/04/05 07:35:27;;;;;;;9.93;7.83;;;7.00;95.00;;;;;;4774944;30;20252;-95
2023/04/05 07:37:53;;;;;;;13.07;8.97;;;7.10;95.20;;;;;;4770561;30;20705;-95
2023/04/05 07:40:19;;;;;;;13.60;8.27;;;7.30;94.80;;;;;;4768734;30;20440;-94
2023/04/05 07:42:44;;;;;;;11.40;9.10;;;7.30;94.60;;;;;;4766133;30;20532;-96
2023/04/05 07:45:10;;;;;;;8.03;6.83;;;7.30;94.50;;;;;;4769949;30;20462;-95
2023/04/05 07:47:36;;;;;;;16.53;9.20;;;7.40;94.50;;;;;;4767935;30;20488;-95
2023/04/05 07:50:02;;;;;;;19.63;7.73;;;7.50;94.30;;;;;;4774781;30;20459;-95
2023/04/05 07:52:28;;;;;;;11.20;7.72;;;7.60;94.30;;;;;;4768534;30;20471;-94
2023/04/05 07:54:54;;;;;;;11.60;8.57;;;7.70;93.90;;;;;;4769506;30;20249;-95
2023/04/05 07:57:21;;;;;;;13.13;8.50;;;7.80;94.50;;;;;;4759443;30;20793;-95
2023/04/05 07:59:49;;;;;;;13.95;8.18;;;7.90;93.90;;;;;;4768082;30;20199;-96
2023/04/05 08:02:15;;;;;;;9.55;7.88;;;8.00;94.10;;;;;;4769476;30;20215;-94
2023/04/05 08:04:41;;;;;;;8.32;7.53;;;8.20;94.30;;;;;;4789459;30;20194;-94
2023/04/05 08:07:07;;;;;;;15.80;12.00;;;8.30;93.70;;;;;;4769825;30;20246;-96
2023/04/05 08:09:34;;;;;;;10.57;8.17;;;8.40;93.70;;;;;;4766715;30;20993;-94
2023/04/05 08:12:01;;;;;;;9.23;6.85;;;8.60;93.70;;;;;;4770990;30;20550;-96
2023/04/05 08:14:27;;;;;;;9.50;7.35;;;8.70;94.20;;;;;;4768700;30;20221;-94
2023/04/05 08:16:53;;;;;;;9.43;8.02;;;8.80;93.30;;;;;;4770012;30;20218;-94
2023/04/05 08:19:19;;;;;;;9.47;8.13;;;8.90;92.90;;;;;;4769745;30;20191;-93
2023/04/05 08:21:45;;;;;;;10.20;7.83;;;9.00;93.20;;;;;;4761776;30;20988;-93
2023/04/05 08:24:10;;;;;;;10.47;7.70;;;9.10;93.00;;;;;;4767712;30;20195;-96
2023/04/05 08:26:36;;;;;;;9.07;6.20;;;9.20;92.90;;;;;;4768976;30;20292;-95
2023/04/05 08:29:02;;;;;;;9.57;7.60;;;9.40;92.40;;;;;;4767778;30;20220;-96
2023/04/05 08:31:28;;;;;;;9.87;7.30;;;9.50;92.40;;;;;;4769598;30;20482;-95
2023/04/05 08:33:54;;;;;;;12.02;7.32;;;9.50;92.40;;;;;;4768368;30;20669;-96
2023/04/05 08:36:20;;;;;;;8.73;6.90;;;9.70;93.10;;;;;;4764997;30;20250;-96
2023/04/05 08:38:46;;;;;;;8.65;7.40;;;9.80;92.10;;;;;;4767572;30;20514;-96
2023/04/05 08:41:22;;;;;;;9.50;7.30;;;9.90;91.90;;;;;;4768580;30;20290;-94
2023/04/05 08:43:57;;;;;;;17.00;6.07;;;10.30;91.90;;;;;;4767663;30;20197;-95
2023/04/05 08:46:24;;;;;;;7.05;6.20;;;10.60;91.50;;;;;;4766183;30;20226;-94
2023/04/05 08:48:51;;;;;;;12.23;7.15;;;10.70;91.40;;;;;;4774511;30;20203;-96
2023/04/05 08:51:21;;;;;;;7.82;5.90;;;10.70;90.90;;;;;;4770110;30;20704;-96
2023/04/05 08:53:47;;;;;;;8.27;6.32;;;10.70;90.70;;;;;;4765496;30;20195;-95
2023/04/05 08:56:28;;;;;;;11.43;6.30;;;10.50;91.30;;;;;;4765224;30;20689;-96
2023/04/05 08:59:02;;;;;;;10.65;6.85;;;10.40;90.70;;;;;;4770143;30;20213;-94
2023/04/05 09:01:29;;;;;;;8.23;6.85;;;10.20;90.30;;;;;;4783582;29;20211;-96
2023/04/05 09:04:00;;;;;;;5.80;5.20;;;10.10;90.60;;;;;;4771085;30;20719;-95
2023/04/05 09:06:27;;;;;;;10.40;7.30;;;10.00;91.30;;;;;;4768406;30;20654;-93
2023/04/05 09:08:57;;;;;;;8.88;7.00;;;9.90;91.00;;;;;;4761778;30;20194;-96
2023/04/05 09:11:24;;;;;;;57.47;36.97;;;9.80;91.00;;;;;;4778739;30;20214;-96
2023/04/05 09:13:50;;;;;;;9.13;7.25;;;9.80;91.30;;;;;;4769885;30;20602;-94
2023/04/05 09:16:16;;;;;;;11.73;7.00;;;9.70;91.20;;;;;;4765184;30;20237;-94
2023/04/05 09:18:42;;;;;;;7.78;5.53;;;9.80;90.80;;;;;;4765961;30;20949;-94
2023/04/05 09:21:09;;;;;;;8.00;6.70;;;9.80;91.10;;;;;;4768981;29;20219;-93
2023/04/05 09:23:35;;;;;;;12.80;7.38;;;9.90;91.20;;;;;;4776994;30;20274;-96
2023/04/05 09:26:17;;;;;;;10.48;6.97;;;9.90;91.00;;;;;;4778088;30;20241;-94
2023/04/05 09:28:43;;;;;;;12.57;7.35;;;9.90;91.30;;;;;;4774893;30;20187;-96
2023/04/05 09:31:08;;;;;;;10.40;7.03;;;10.00;91.10;;;;;;4781749;29;20218;-95
2023/04/05 09:33:35;;;;;;;9.23;6.13;;;10.00;91.00;;;;;;4771162;30;20926;-95
2023/04/05 09:36:01;;;;;;;11.73;7.10;;;10.10;90.30;;;;;;4775765;30;20176;-95
2023/04/05 09:38:44;;;;;;;7.53;6.18;;;10.10;90.90;;;;;;4774555;30;20212;-96
2023/04/05 09:41:10;;;;;;;7.38;6.50;;;10.20;90.70;;;;;;4771706;30;20218;-93
2023/04/05 09:43:38;;;;;;;7.15;5.70;;;10.20;90.40;;;;;;4773381;30;20195;-93
2023/04/05 09:46:04;;;;;;;9.02;6.07;;;10.10;90.10;;;;;;4770004;30;20330;-96
2023/04/05 09:48:50;;;;;;;6.80;5.45;;;10.20;90.40;;;;;;4785418;30;20192;-94
2023/04/05 09:51:16;;;;;;;9.50;5.93;;;10.20;89.60;;;;;;4772036;30;20665;-96
2023/04/05 09:53:58;;;;;;;7.53;6.50;;;10.30;90.50;;;;;;4764446;30;20303;-94
2023/04/05 09:56:25;;;;;;;14.65;7.15;;;10.40;90.90;;;;;;4770255;30;20203;-94
2023/04/05 09:58:51;;;;;;;9.55;6.07;;;10.60;90.30;;;;;;4767508;30;20199;-95
2023/04/05 10:01:19;;;;;;;8.68;6.35;;;10.60;90.00;;;;;;4768952;30;20215;-94
2023/04/05 10:03:46;;;;;;;11.35;6.07;;;10.60;90.50;;;;;;4771618;30;20511;-93
2023/04/05 10:06:14;;;;;;;8.48;7.68;;;10.80;90.30;;;;;;4773805;30;20231;-95
2023/04/05 10:08:42;;;;;;;6.80;6.10;;;11.00;90.20;;;;;;4766071;30;20705;-96
2023/04/05 10:11:09;;;;;;;6.63;5.93;;;11.10;89.90;;;;;;4769872;29;20223;-93
2023/04/05 10:13:37;;;;;;;7.68;6.10;;;11.20;90.50;;;;;;4768629;30;20666;-94
2023/04/05 10:16:07;;;;;;;6.75;5.82;;;11.20;89.10;;;;;;4774628;29;20217;-94
2023/04/05 10:18:42;;;;;;;7.35;6.65;;;11.10;88.20;;;;;;4767544;30;20179;-96
2023/04/05 10:21:10;;;;;;;8.38;6.60;;;11.00;89.50;;;;;;4781956;29;20215;-96
2023/04/05 10:23:38;;;;;;;6.75;6.05;;;11.00;88.90;;;;;;4769189;30;20183;-96
2023/04/05 10:26:31;;;;;;;15.10;6.90;;;11.00;88.80;;;;;;4770278;29;20230;-94
2023/04/05 10:29:02;;;;;;;8.70;6.07;;;10.90;87.90;;;;;;4771455;30;20206;-94
2023/04/05 10:31:50;;;;;;;8.00;6.00;;;10.80;88.60;;;;;;4773746;30;20292;-94
2023/04/05 10:34:30;;;;;;;6.93;6.00;;;10.50;89.70;;;;;;4773137;30;20203;-94
2023/04/05 10:37:00;;;;;;;9.13;6.78;;;10.40;89.50;;;;;;4774763;30;20203;-93
2023/04/05 10:39:34;;;;;;;8.88;6.85;;;10.30;88.80;;;;;;4775418;30;20282;-93
2023/04/05 10:42:06;;;;;;;7.95;5.88;;;10.30;89.00;;;;;;4793098;29;20254;-96
2023/04/05 10:44:34;;;;;;;7.97;7.10;;;10.20;90.10;;;;;;4774207;30;20649;-96
2023/04/05 10:47:00;;;;;;;7.65;6.10;;;10.30;89.30;;;;;;4782069;30;20230;-96
2023/04/05 10:49:38;;;;;;;6.82;5.85;;;10.20;89.30;;;;;;4768375;30;20195;-95
2023/04/05 10:52:05;;;;;;;8.98;7.20;;;10.20;89.10;;;;;;4767229;30;20747;-93
2023/04/05 10:54:35;;;;;;;9.52;7.20;;;10.20;89.70;;;;;;4771762;30;20187;-94
2023/04/05 10:57:03;;;;;;;12.55;7.20;;;10.20;90.60;;;;;;4767879;30;20223;-93
2023/04/05 10:59:30;;;;;;;9.02;7.18;;;10.30;90.20;;;;;;4768043;30;20191;-94
2023/04/05 11:01:57;;;;;;;12.63;7.13;;;10.40;90.70;;;;;;4769337;30;20221;-94
2023/04/05 11:04:23;;;;;;;7.47;5.97;;;10.50;90.30;;;;;;4770224;30;20294;-96
2023/04/05 11:07:09;;;;;;;8.90;6.40;;;10.60;89.30;;;;;;4767435;30;20342;-96
2023/04/05 11:09:35;;;;;;;7.57;6.78;;;10.70;89.30;;;;;;4800095;29;20443;-96
2023/04/05 11:12:00;;;;;;;10.00;7.45;;;10.70;89.10;;;;;;4768984;30;20215;-93
2023/04/05 11:14:37;;;;;;;7.50;6.70;;;10.70;89.50;;;;;;4764581;30;20268;-96
2023/04/05 11:17:04;;;;;;;8.65;7.15;;;10.70;89.70;;;;;;4775380;30;20215;-95
2023/04/05 11:19:41;;;;;;;7.50;6.80;;;10.70;90.00;;;;;;4771774;30;20191;-94
2023/04/05 11:22:08;;;;;;;8.77;7.75;;;10.80;89.50;;;;;;4770151;30;20268;-96
2023/04/05 11:24:56;;;;;;;9.13;6.47;;;10.90;89.50;;;;;;4764900;30;20199;-94
2023/04/05 11:27:27;;;;;;;9.85;7.13;;;10.90;89.20;;;;;;4775499;30;20243;-96
2023/04/05 11:29:53;;;;;;;11.40;6.97;;;10.90;88.50;;;;;;4776102;30;20294;-93
2023/04/05 11:32:20;;;;;;;8.40;6.32;;;10.80;88.80;;;;;;4772051;30;20309;-96
2023/04/05 11:35:06;;;;;;;12.02;7.50;;;10.70;87.60;;;;;;4773543;30;20546;-93
2023/04/05 11:38:01;;;;;;;9.82;6.53;;;10.70;87.40;;;;;;4777464;30;20207;-95
2023/04/05 11:40:30;;;;;;;8.20;7.05;;;10.50;87.80;;;;;;4767535;30;20192;-94
2023/04/05 11:43:08;;;;;;;7.68;6.55;;;10.50;88.80;;;;;;4771972;30;20233;-96
2023/04/05 11:45:36;;;;;;;8.20;6.35;;;10.50;89.80;;;;;;4755462;30;20568;-94
2023/04/05 11:48:06;;;;;;;7.45;6.75;;;10.60;90.20;;;;;;4760695;30;20326;-96
2023/04/05 11:50:32;;;;;;;10.02;6.13;;;10.70;90.00;;;;;;4770682;30;20226;-95
2023/04/05 11:53:15;;;;;;;10.18;7.15;;;10.80;89.60;;;;;;4772224;30;20226;-94
2023/04/05 11:55:52;;;;;;;6.88;6.07;;;10.90;88.20;;;;;;4771135;30;20191;-95
2023/04/05 11:58:22;;;;;;;7.80;6.60;;;11.00;88.00;;;;;;4772306;30;20187;-96
2023/04/05 12:01:07;;;;;;;7.35;6.55;;;11.00;87.80;;;;;;4778770;29;20491;-94
2023/04/05 12:03:34;;;;;;;7.85;6.28;;;11.00;87.30;;;;;;4769170;30;20191;-95
2023/04/05 12:06:02;;;;;;;8.02;6.32;;;11.10;86.80;;;;;;4764680;29;20191;-96
2023/04/05 12:08:51;;;;;;;8.68;6.95;;;11.00;87.20;;;;;;4750914;30;20230;-96
2023/04/05 12:11:28;;;;;;;11.05;7.63;;;11.10;87.30;;;;;;4769481;30;20238;-96
2023/04/05 12:13:57;;;;;;;8.60;7.75;;;11.10;86.60;;;;;;4782267;30;20276;-93
2023/04/05 12:16:23;;;;;;;8.43;6.43;;;11.10;87.10;;;;;;4758630;30;20223;-96
2023/04/05 12:18:58;;;;;;;9.35;6.97;;;11.10;87.20;;;;;;4768936;30;20179;-94
2023/04/05 12:21:25;;;;;;;6.78;6.07;;;11.10;87.10;;;;;;4767527;30;20299;-96
2023/04/05 12:23:51;;;;;;;9.85;7.60;;;11.10;87.00;;;;;;4766155;30;20195;-96
2023/04/05 12:26:17;;;;;;;9.45;6.63;;;11.20;87.40;;;;;;4767453;30;20222;-95
2023/04/05 12:28:57;;;;;;;12.95;7.43;;;11.20;87.50;;;;;;4768713;30;20187;-94
2023/04/05 12:31:40;;;;;;;8.02;7.07;;;11.20;87.10;;;;;;4768347;30;20316;-95
2023/04/05 12:34:06;;;;;;;9.07;6.20;;;11.30;87.80;;;;;;4765178;30;20668;-94
2023/04/05 12:36:32;;;;;;;8.38;6.68;;;11.40;87.20;;;;;;4766254;30;20199;-94
2023/04/05 12:38:59;;;;;;;7.90;6.90;;;11.50;87.10;;;;;;4775640;30;20799;-95
2023/04/05 12:41:32;;;;;;;9.00;6.90;;;11.60;85.80;;;;;;4762321;30;20925;-94
2023/04/05 12:44:03;;;;;;;9.60;8.43;;;11.70;87.50;;;;;;4763004;29;20419;-94
2023/04/05 12:46:47;;;;;;;11.25;7.85;;;11.70;86.90;;;;;;4774522;30;20653;-95
2023/04/05 12:49:15;;;;;;;6.93;6.00;;;11.90;85.90;;;;;;4770528;30;20556;-96
2023/04/05 12:51:45;;;;;;;6.68;6.05;;;11.90;85.60;;;;;;4770099;30;20203;-94
2023/04/05 12:54:21;;;;;;;6.85;6.15;;;11.90;85.60;;;;;;4771031;30;20195;-96
2023/04/05 12:56:54;;;;;;;8.07;6.67;;;12.00;87.20;;;;;;4769576;30;20210;-96